createdAt,value
2022-07-26T00:01:16.514Z,101057.66
2022-07-26T00:03:43.008Z,100750.53
2022-07-26T00:06:09.481Z,101102.50
2022-07-26T00:08:36.113Z,101072.81
2022-07-26T00:11:07.349Z,101121.22
2022-07-26T00:13:34.992Z,101129.94
2022-07-26T00:16:02.409Z,101138.97
2022-07-26T00:18:28.842Z,101075.81
2022-07-26T00:20:55.561Z,101118.56
2022-07-26T00:23:22.426Z,101095.16
2022-07-26T00:25:48.840Z,101113.38
2022-07-26T00:28:15.260Z,101102.63
2022-07-26T00:30:41.686Z,101108.19
2022-07-26T00:33:08.703Z,101137.88
2022-07-26T00:35:35.244Z,101109.59
2022-07-26T00:38:01.641Z,101107.66
2022-07-26T00:40:28.072Z,101068.19
2022-07-26T00:42:54.489Z,101061.16
2022-07-26T00:45:20.906Z,101134.03
2022-07-26T00:47:47.296Z,101065.53
2022-07-26T00:50:16.924Z,101139.53
2022-07-26T00:52:45.811Z,101120.59
2022-07-26T00:55:13.001Z,101067.31
2022-07-26T00:57:40.858Z,101117.69
2022-07-26T01:00:11.437Z,101133.97
2022-07-26T01:02:37.866Z,100930.31
2022-07-26T01:05:04.664Z,100940.16
2022-07-26T01:07:31.290Z,101124.28
2022-07-26T01:09:57.764Z,101092.94
2022-07-26T01:12:24.527Z,101087.34
2022-07-26T01:14:50.931Z,100988.44
2022-07-26T01:17:17.471Z,101129.50
2022-07-26T01:19:43.864Z,101122.97
2022-07-26T01:22:14.354Z,101062.25
2022-07-26T01:24:41.275Z,101079.31
2022-07-26T01:27:07.909Z,101098.91
2022-07-26T01:29:34.582Z,101092.81
2022-07-26T01:32:03.990Z,101038.47
2022-07-26T01:34:30.926Z,101068.94
2022-07-26T01:36:57.346Z,101075.72
2022-07-26T01:39:24.004Z,101130.44
2022-07-26T01:41:50.446Z,101126.22
2022-07-26T01:44:16.873Z,101037.09
2022-07-26T01:46:43.254Z,101033.56
2022-07-26T01:49:09.950Z,101071.88
2022-07-26T01:51:36.549Z,101117.09
2022-07-26T01:54:03.066Z,101100.81
2022-07-26T01:56:29.486Z,101130.91
2022-07-26T01:58:55.891Z,101131.00
2022-07-26T02:01:39.681Z,101064.50
2022-07-26T02:04:08.128Z,101038.28
2022-07-26T02:06:34.898Z,101133.28
2022-07-26T02:09:01.911Z,101055.97
2022-07-26T02:11:28.864Z,101128.72
2022-07-26T02:13:55.258Z,101146.44
2022-07-26T02:16:21.670Z,101132.19
2022-07-26T02:18:48.141Z,101126.97
2022-07-26T02:21:14.482Z,101102.47
2022-07-26T02:23:41.766Z,101048.63
2022-07-26T02:26:09.050Z,101127.25
2022-07-26T02:28:35.645Z,101125.16
2022-07-26T02:31:02.205Z,101070.13
2022-07-26T02:33:28.646Z,101113.56
2022-07-26T02:35:55.097Z,101103.94
2022-07-26T02:38:21.516Z,101107.22
2022-07-26T02:40:50.398Z,101059.56
2022-07-26T02:43:17.039Z,101108.19
2022-07-26T02:45:43.493Z,101129.81
2022-07-26T02:48:10.453Z,101112.47
2022-07-26T02:50:36.945Z,101128.75
2022-07-26T02:53:03.443Z,101043.94
2022-07-26T02:55:30.137Z,101099.44
2022-07-26T02:57:56.726Z,101046.63
2022-07-26T03:00:25.702Z,101113.19
2022-07-26T03:02:52.665Z,101037.59
2022-07-26T03:05:19.964Z,101075.16
2022-07-26T03:07:47.218Z,101078.88
2022-07-26T03:10:14.053Z,101057.28
2022-07-26T03:12:40.581Z,101083.13
2022-07-26T03:15:08.865Z,101137.56
2022-07-26T03:17:35.547Z,101132.59
2022-07-26T03:20:02.477Z,101082.06
2022-07-26T03:22:28.931Z,101063.56
2022-07-26T03:24:55.321Z,101139.25
2022-07-26T03:27:21.669Z,101109.38
2022-07-26T03:29:48.124Z,101129.28
2022-07-26T03:32:14.471Z,101071.91
2022-07-26T03:34:40.809Z,101052.44
2022-07-26T03:37:07.208Z,101030.94
2022-07-26T03:39:33.649Z,101137.00
2022-07-26T03:42:00.049Z,100978.94
2022-07-26T03:44:26.470Z,101146.53
2022-07-26T03:46:52.874Z,101120.19
2022-07-26T03:49:19.539Z,101134.25
2022-07-26T03:51:46.092Z,101145.50
2022-07-26T03:54:12.815Z,101145.50
2022-07-26T03:56:40.366Z,101138.81
2022-07-26T03:59:08.690Z,101081.16
2022-07-26T04:01:41.593Z,101075.88
2022-07-26T04:04:09.777Z,101120.34
2022-07-26T04:06:37.117Z,101140.31
2022-07-26T04:09:06.089Z,101137.56
2022-07-26T04:11:33.877Z,101144.06
2022-07-26T04:14:00.811Z,101062.41
2022-07-26T04:16:27.610Z,101140.97
2022-07-26T04:18:54.413Z,101067.59
2022-07-26T04:21:20.830Z,101021.56
2022-07-26T04:23:51.106Z,101141.25
2022-07-26T04:26:17.983Z,101140.06
2022-07-26T04:28:44.370Z,101142.59
2022-07-26T04:31:10.807Z,101142.09
2022-07-26T04:33:37.203Z,101106.75
2022-07-26T04:36:03.896Z,100894.47
2022-07-26T04:38:30.763Z,101151.50
2022-07-26T04:40:57.997Z,101149.38
2022-07-26T04:43:25.399Z,101073.25
2022-07-26T04:45:51.968Z,101069.25
2022-07-26T04:48:18.573Z,101052.19
2022-07-26T04:50:45.015Z,101148.13
2022-07-26T04:53:11.546Z,101095.03
2022-07-26T04:55:38.621Z,101082.13
2022-07-26T04:58:05.574Z,101129.91
2022-07-26T05:00:32.113Z,101141.75
2022-07-26T05:03:00.018Z,101141.41
2022-07-26T05:05:28.647Z,101145.88
2022-07-26T05:07:58.121Z,101146.16
2022-07-26T05:10:35.096Z,101075.22
2022-07-26T05:13:03.967Z,101141.94
2022-07-26T05:15:35.257Z,101147.78
2022-07-26T05:18:08.122Z,101137.44
2022-07-26T05:20:36.678Z,101150.00
2022-07-26T05:23:03.828Z,101097.66
2022-07-26T05:25:30.295Z,101085.16
2022-07-26T05:27:56.862Z,101086.59
2022-07-26T05:30:23.403Z,101140.75
2022-07-26T05:32:50.158Z,101093.75
2022-07-26T05:35:16.610Z,101063.81
2022-07-26T05:37:43.332Z,101128.13
2022-07-26T05:40:11.007Z,101136.22
2022-07-26T05:42:37.850Z,101133.78
2022-07-26T05:45:05.585Z,101130.06
2022-07-26T05:47:32.137Z,101126.88
2022-07-26T05:49:59.141Z,101139.22
2022-07-26T05:52:25.767Z,101118.47
2022-07-26T05:54:52.222Z,101138.97
2022-07-26T05:57:18.589Z,101039.47
2022-07-26T05:59:44.962Z,101086.06
2022-07-26T06:02:11.425Z,101136.19
2022-07-26T06:04:38.104Z,101129.56
2022-07-26T06:07:04.535Z,101068.78
2022-07-26T06:09:31.664Z,101130.75
2022-07-26T06:11:58.098Z,101130.88
2022-07-26T06:14:24.637Z,101078.06
2022-07-26T06:16:51.454Z,101114.91
2022-07-26T06:19:17.958Z,101117.56
2022-07-26T06:21:45.940Z,101129.75
2022-07-26T06:24:12.849Z,101100.16
2022-07-26T06:26:39.622Z,101135.19
2022-07-26T06:29:06.149Z,101140.72
2022-07-26T06:31:32.688Z,101075.03
2022-07-26T06:33:59.287Z,101148.59
2022-07-26T06:36:30.337Z,101075.06
2022-07-26T06:38:57.361Z,101151.22
2022-07-26T06:41:24.103Z,101159.34
2022-07-26T06:43:50.479Z,101163.44
2022-07-26T06:46:16.992Z,101161.94
2022-07-26T06:48:47.417Z,101104.50
2022-07-26T06:51:18.997Z,101163.03
2022-07-26T06:53:45.362Z,101163.66
2022-07-26T06:56:14.774Z,100993.44
2022-07-26T06:58:42.330Z,101175.41
2022-07-26T07:01:08.768Z,101153.22
2022-07-26T07:03:35.686Z,101166.47
2022-07-26T07:06:02.114Z,101094.97
2022-07-26T07:08:29.008Z,101065.88
2022-07-26T07:10:56.650Z,101129.31
2022-07-26T07:13:23.085Z,101078.13
2022-07-26T07:15:49.467Z,101064.78
2022-07-26T07:18:15.916Z,101126.44
2022-07-26T07:20:42.304Z,101026.84
2022-07-26T07:23:08.737Z,101167.28
2022-07-26T07:25:35.232Z,101159.19
2022-07-26T07:28:01.740Z,101173.06
2022-07-26T07:30:28.261Z,101168.63
2022-07-26T07:32:55.663Z,101101.09
2022-07-26T07:35:23.309Z,101183.09
2022-07-26T07:37:52.569Z,101169.56
2022-07-26T07:40:19.762Z,101176.81
2022-07-26T07:42:46.247Z,101085.34
2022-07-26T07:45:12.709Z,101168.19
2022-07-26T07:47:39.111Z,101109.50
2022-07-26T07:50:06.165Z,101131.56
2022-07-26T07:52:32.630Z,101159.13
2022-07-26T07:55:21.858Z,101099.84
2022-07-26T07:57:45.430Z,101179.63
2022-07-26T08:00:15.989Z,101165.59
2022-07-26T08:02:42.637Z,101123.69
2022-07-26T08:05:14.159Z,101150.50
2022-07-26T08:07:41.001Z,101141.50
2022-07-26T08:10:08.638Z,101170.84
2022-07-26T08:12:35.085Z,101158.78
2022-07-26T08:15:02.330Z,101088.22
2022-07-26T08:17:34.235Z,101110.81
2022-07-26T08:20:01.800Z,101092.00
2022-07-26T08:22:28.242Z,101164.06
2022-07-26T08:24:54.601Z,101162.97
2022-07-26T08:27:21.033Z,101079.28
2022-07-26T08:29:47.458Z,100982.94
2022-07-26T08:32:13.981Z,101158.50
2022-07-26T08:34:40.442Z,101154.22
2022-07-26T08:37:17.099Z,101098.13
2022-07-26T08:39:44.541Z,101099.94
2022-07-26T08:42:15.840Z,101138.03
2022-07-26T08:44:46.333Z,101166.91
2022-07-26T08:47:17.575Z,101130.31
2022-07-26T08:50:01.904Z,101177.91
2022-07-26T08:52:29.200Z,101123.50
2022-07-26T08:54:55.586Z,101170.66
2022-07-26T08:57:22.055Z,101144.13
2022-07-26T09:00:18.779Z,101166.72
2022-07-26T09:02:46.055Z,101092.41
2022-07-26T09:05:13.307Z,101150.19
2022-07-26T09:07:40.265Z,101173.69
2022-07-26T09:10:10.221Z,101172.56
2022-07-26T09:12:37.507Z,101170.44
2022-07-26T09:15:05.937Z,101160.50
2022-07-26T09:17:41.938Z,101159.81
2022-07-26T09:20:10.378Z,101175.28
2022-07-26T09:22:38.777Z,101187.91
2022-07-26T09:25:20.708Z,101149.84
2022-07-26T09:27:47.237Z,101177.59
2022-07-26T09:30:13.963Z,101084.63
2022-07-26T09:32:40.498Z,101162.31
2022-07-26T09:35:45.300Z,101153.97
2022-07-26T09:38:12.931Z,101141.81
2022-07-26T09:40:39.361Z,101112.06
2022-07-26T09:43:07.490Z,101152.44
2022-07-26T09:45:36.775Z,101109.69
2022-07-26T09:48:04.390Z,101112.28
2022-07-26T09:50:32.842Z,101168.94
2022-07-26T09:53:08.457Z,101170.28
2022-07-26T09:55:44.589Z,101154.94
2022-07-26T09:58:16.676Z,101180.66
2022-07-26T10:00:44.020Z,101152.72
2022-07-26T10:03:10.611Z,101119.88
2022-07-26T10:05:37.788Z,101173.56
2022-07-26T10:08:06.295Z,101153.09
2022-07-26T10:10:50.287Z,101146.94
2022-07-26T10:13:17.417Z,101133.75
2022-07-26T10:15:49.137Z,101164.38
2022-07-26T10:18:38.016Z,101193.03
2022-07-26T10:21:16.669Z,101198.78
2022-07-26T10:23:46.060Z,101208.00
2022-07-26T10:26:31.076Z,101209.34
2022-07-26T10:29:15.901Z,101226.97
2022-07-26T10:32:02.497Z,101229.38
2022-07-26T10:34:38.493Z,101217.44
2022-07-26T10:37:20.193Z,101213.03
2022-07-26T10:39:46.639Z,101134.28
2022-07-26T10:42:13.005Z,101210.03
2022-07-26T10:44:41.976Z,101155.00
2022-07-26T10:47:08.293Z,101185.22
2022-07-26T10:49:39.990Z,101198.13
2022-07-26T10:52:07.677Z,101203.94
2022-07-26T10:54:57.141Z,101209.00
2022-07-26T10:57:24.306Z,101168.19
2022-07-26T10:59:56.305Z,101185.34
2022-07-26T11:02:26.416Z,101194.00
2022-07-26T11:05:14.850Z,101220.28
2022-07-26T11:08:13.520Z,101210.22
2022-07-26T11:10:42.469Z,101201.81
2022-07-26T11:13:18.044Z,101203.53
2022-07-26T11:15:49.795Z,101166.41
2022-07-26T11:18:19.279Z,101218.13
2022-07-26T11:20:48.282Z,101195.56
2022-07-26T11:23:32.678Z,101211.06
2022-07-26T11:26:19.382Z,101171.09
2022-07-26T11:28:50.309Z,101234.06
2022-07-26T11:31:17.982Z,101245.53
2022-07-26T11:33:50.788Z,101268.28
2022-07-26T11:36:38.357Z,101190.63
2022-07-26T11:39:07.547Z,101289.88
2022-07-26T11:41:35.192Z,101280.78
2022-07-26T11:44:02.785Z,101287.75
2022-07-26T11:46:48.285Z,101216.63
2022-07-26T11:49:36.223Z,101214.94
2022-07-26T11:52:12.010Z,101282.28
2022-07-26T11:54:50.183Z,101273.25
2022-07-26T11:57:17.802Z,101276.63
2022-07-26T11:59:46.533Z,101271.88
2022-07-26T12:02:14.339Z,101259.41
2022-07-26T12:04:42.669Z,101282.19
2022-07-26T12:07:11.445Z,101197.72
2022-07-26T12:09:40.607Z,101280.31
2022-07-26T12:12:19.663Z,101267.69
2022-07-26T12:15:07.035Z,101301.56
2022-07-26T12:17:35.552Z,101206.09
2022-07-26T12:20:12.612Z,101290.31
2022-07-26T12:22:39.280Z,101225.13
2022-07-26T12:25:06.242Z,101290.13
2022-07-26T12:27:33.638Z,101273.94
2022-07-26T12:30:03.198Z,101295.22
2022-07-26T12:32:43.480Z,101309.47
2022-07-26T12:35:11.163Z,101311.50
2022-07-26T12:37:48.227Z,101314.56
2022-07-26T12:40:16.295Z,101330.03
2022-07-26T12:42:50.042Z,101317.75
2022-07-26T12:45:26.438Z,101270.50
2022-07-26T12:47:53.890Z,101311.41
2022-07-26T12:50:22.833Z,101323.22
2022-07-26T12:52:49.635Z,101322.91
2022-07-26T12:55:19.314Z,101319.59
2022-07-26T12:57:47.891Z,101314.09
2022-07-26T13:00:16.273Z,101286.00
2022-07-26T13:02:43.541Z,101294.84
2022-07-26T13:05:11.018Z,101240.78
2022-07-26T13:07:37.721Z,101239.69
2022-07-26T13:10:32.023Z,100953.03
2022-07-26T13:12:52.719Z,101232.44
2022-07-26T13:15:19.058Z,101244.75
2022-07-26T13:17:45.461Z,101083.78
2022-07-26T13:20:11.831Z,101231.38
2022-07-26T13:22:39.636Z,101210.84
2022-07-26T13:25:08.284Z,101166.53
2022-07-26T13:27:36.166Z,101172.94
2022-07-26T13:30:04.086Z,101168.06
2022-07-26T13:32:30.892Z,101203.50
2022-07-26T13:34:57.263Z,101237.81
2022-07-26T13:37:23.633Z,101238.19
2022-07-26T13:39:50.153Z,101273.50
2022-07-26T13:42:18.540Z,101235.56
2022-07-26T13:44:45.287Z,101212.53
2022-07-26T13:47:11.666Z,101305.22
2022-07-26T13:49:38.128Z,101275.91
2022-07-26T13:52:04.720Z,101336.13
2022-07-26T13:54:32.803Z,101303.50
2022-07-26T13:57:01.089Z,101320.94
2022-07-26T13:59:29.270Z,101261.81
2022-07-26T14:01:56.287Z,101342.19
2022-07-26T14:04:23.519Z,101332.59
2022-07-26T14:06:50.359Z,101330.78
2022-07-26T14:09:17.949Z,101334.59
2022-07-26T14:11:45.435Z,101291.00
2022-07-26T14:14:12.831Z,101291.50
2022-07-26T14:16:39.805Z,101289.84
2022-07-26T14:19:06.338Z,101326.22
2022-07-26T14:21:43.517Z,101312.38
2022-07-26T14:24:15.278Z,101258.22
2022-07-26T14:26:44.905Z,101234.75
2022-07-26T14:29:13.309Z,101255.38
2022-07-26T14:31:39.731Z,101250.22
2022-07-26T14:34:06.129Z,101341.38
2022-07-26T14:36:32.503Z,101334.72
2022-07-26T14:38:59.057Z,101325.09
2022-07-26T14:41:25.461Z,101169.88
2022-07-26T14:43:55.454Z,101321.94
2022-07-26T14:46:22.352Z,101317.09
2022-07-26T14:48:54.458Z,101347.19
2022-07-26T14:51:21.377Z,101201.91
2022-07-26T14:53:47.889Z,101312.44
2022-07-26T14:56:14.309Z,101328.50
2022-07-26T14:58:40.734Z,101352.84
2022-07-26T15:01:07.273Z,101341.53
2022-07-26T15:03:33.816Z,101334.91
2022-07-26T15:06:00.409Z,101303.31
2022-07-26T15:08:26.909Z,101327.19
2022-07-26T15:10:53.322Z,101296.91
2022-07-26T15:13:19.713Z,101334.66
2022-07-26T15:15:46.088Z,101347.19
2022-07-26T15:18:12.477Z,101370.31
2022-07-26T15:20:40.843Z,101304.72
2022-07-26T15:23:11.947Z,101315.56
2022-07-26T15:25:38.499Z,101365.66
2022-07-26T15:28:05.397Z,101370.91
2022-07-26T15:30:33.202Z,101363.91
2022-07-26T15:33:01.811Z,101333.47
2022-07-26T15:35:29.516Z,101392.06
2022-07-26T15:37:56.461Z,101301.13
2022-07-26T15:40:22.970Z,101377.81
2022-07-26T15:42:51.881Z,101388.25
2022-07-26T15:45:20.123Z,101399.38
2022-07-26T15:48:03.323Z,101390.16
2022-07-26T15:50:34.480Z,101379.34
2022-07-26T15:53:00.849Z,101289.53
2022-07-26T15:55:27.430Z,101311.44
2022-07-26T15:57:53.802Z,101335.31
2022-07-26T16:00:20.194Z,101384.38
2022-07-26T16:02:46.647Z,101399.88
2022-07-26T16:05:13.537Z,101331.78
2022-07-26T16:07:44.150Z,101317.84
2022-07-26T16:10:13.373Z,101397.31
2022-07-26T16:12:40.758Z,101409.97
2022-07-26T16:15:09.168Z,101404.84
2022-07-26T16:17:36.015Z,101379.28
2022-07-26T16:20:02.990Z,101387.50
2022-07-26T16:22:30.071Z,101400.47
2022-07-26T16:24:56.505Z,101409.84
2022-07-26T16:27:23.042Z,101283.09
2022-07-26T16:29:52.269Z,101290.44
2022-07-26T16:32:21.017Z,101382.63
2022-07-26T16:34:47.488Z,101386.31
2022-07-26T16:37:14.136Z,101398.00
2022-07-26T16:39:40.563Z,101353.75
2022-07-26T16:42:07.530Z,101379.03
2022-07-26T16:44:35.971Z,101301.59
2022-07-26T16:47:02.764Z,101367.00
2022-07-26T16:49:29.292Z,101366.69
2022-07-26T16:51:57.056Z,101376.34
2022-07-26T16:54:23.485Z,101296.53
2022-07-26T16:56:49.867Z,101357.97
2022-07-26T16:59:16.675Z,101364.25
2022-07-26T17:01:43.650Z,101370.88
2022-07-26T17:04:10.198Z,101373.41
2022-07-26T17:06:36.589Z,101292.94
2022-07-26T17:09:03.340Z,101368.47
2022-07-26T17:11:29.754Z,101395.88
2022-07-26T17:13:56.181Z,101367.59
2022-07-26T17:16:25.041Z,101401.25
2022-07-26T17:18:53.066Z,101410.31
2022-07-26T17:21:19.679Z,101418.03
2022-07-26T17:23:46.159Z,101367.88
2022-07-26T17:26:12.747Z,101425.66
2022-07-26T17:28:39.138Z,101420.00
2022-07-26T17:31:05.589Z,101406.00
2022-07-26T17:33:32.015Z,101444.41
2022-07-26T17:35:59.664Z,101423.25
2022-07-26T17:38:29.896Z,101344.88
2022-07-26T17:40:56.754Z,101371.50
2022-07-26T17:43:23.217Z,101378.28
2022-07-26T17:45:50.374Z,101077.38
2022-07-26T17:48:16.800Z,101361.97
2022-07-26T17:50:43.160Z,101353.88
2022-07-26T17:53:09.514Z,101350.19
2022-07-26T17:55:36.097Z,101400.59
2022-07-26T17:58:02.573Z,101428.38
2022-07-26T18:00:29.606Z,101429.03
2022-07-26T18:02:56.841Z,101430.56
2022-07-26T18:05:27.297Z,101427.47
2022-07-26T18:07:59.305Z,101397.03
2022-07-26T18:10:27.480Z,101406.59
2022-07-26T18:12:54.771Z,101423.75
2022-07-26T18:15:21.514Z,101421.88
2022-07-26T18:17:48.118Z,101426.69
2022-07-26T18:20:14.595Z,101238.91
2022-07-26T18:22:41.027Z,101426.41
2022-07-26T18:25:07.740Z,101363.22
2022-07-26T18:27:34.096Z,101434.28
2022-07-26T18:30:00.582Z,101362.94
2022-07-26T18:32:27.067Z,101399.38
2022-07-26T18:34:53.518Z,101442.44
2022-07-26T18:37:20.821Z,101445.50
2022-07-26T18:39:47.730Z,101373.09
2022-07-26T18:42:14.387Z,101442.44
2022-07-26T18:44:40.947Z,101388.69
2022-07-26T18:47:07.934Z,101409.03
2022-07-26T18:49:35.429Z,101415.75
2022-07-26T18:52:08.365Z,101412.97
2022-07-26T18:54:36.921Z,101398.81
2022-07-26T18:57:04.138Z,101393.72
2022-07-26T18:59:31.180Z,101445.75
2022-07-26T19:01:59.859Z,101441.88
2022-07-26T19:04:26.909Z,101455.19
2022-07-26T19:06:53.405Z,101457.72
2022-07-26T19:09:19.808Z,101429.00
2022-07-26T19:11:46.306Z,101443.88
2022-07-26T19:14:13.501Z,101466.44
2022-07-26T19:16:40.150Z,101469.22
2022-07-26T19:19:06.681Z,101466.69
2022-07-26T19:21:33.180Z,101464.59
2022-07-26T19:23:59.795Z,101471.94
2022-07-26T19:26:27.394Z,101392.78
2022-07-26T19:28:53.935Z,101471.47
2022-07-26T19:31:21.134Z,101441.50
2022-07-26T19:33:47.666Z,101466.97
2022-07-26T19:36:25.300Z,101417.09
2022-07-26T19:38:52.775Z,101407.78
2022-07-26T19:41:21.965Z,101464.88
2022-07-26T19:43:48.378Z,101428.47
2022-07-26T19:46:14.940Z,101468.19
2022-07-26T19:48:41.481Z,101462.81
2022-07-26T19:51:07.874Z,101443.50
2022-07-26T19:53:34.253Z,101496.56
2022-07-26T19:56:00.618Z,101497.75
2022-07-26T19:58:29.072Z,101402.03
2022-07-26T20:00:55.598Z,101501.78
2022-07-26T20:03:22.024Z,101505.09
2022-07-26T20:05:48.450Z,101473.59
2022-07-26T20:08:14.818Z,101504.69
2022-07-26T20:10:41.183Z,101464.97
2022-07-26T20:13:07.622Z,101516.03
2022-07-26T20:15:34.045Z,101460.06
2022-07-26T20:18:00.419Z,101443.84
2022-07-26T20:20:26.815Z,101424.63
2022-07-26T20:22:53.204Z,101510.53
2022-07-26T20:25:21.918Z,101491.97
2022-07-26T20:27:51.139Z,101431.13
2022-07-26T20:30:18.248Z,101496.53
2022-07-26T20:32:44.668Z,101337.34
2022-07-26T20:35:11.337Z,101459.25
2022-07-26T20:37:37.898Z,101521.38
2022-07-26T20:40:05.102Z,101514.91
2022-07-26T20:42:34.096Z,101454.91
2022-07-26T20:45:01.152Z,101358.91
2022-07-26T20:47:27.819Z,101513.31
2022-07-26T20:49:57.277Z,101437.38
2022-07-26T20:52:26.092Z,101515.81
2022-07-26T20:54:52.498Z,101439.81
2022-07-26T20:57:22.268Z,101524.97
2022-07-26T20:59:48.641Z,101530.72
2022-07-26T21:02:15.572Z,101529.84
2022-07-26T21:04:41.994Z,101538.13
2022-07-26T21:07:08.419Z,101512.00
2022-07-26T21:09:34.892Z,101354.84
2022-07-26T21:12:01.600Z,101541.44
2022-07-26T21:14:28.027Z,101498.84
2022-07-26T21:16:54.521Z,101538.78
2022-07-26T21:19:21.059Z,101536.47
2022-07-26T21:21:47.500Z,101542.50
2022-07-26T21:24:13.873Z,101531.88
2022-07-26T21:26:40.625Z,101467.31
2022-07-26T21:29:07.024Z,101543.53
2022-07-26T21:31:33.444Z,101526.66
2022-07-26T21:33:59.892Z,101553.75
2022-07-26T21:36:26.339Z,101533.44
2022-07-26T21:38:52.839Z,101543.84
2022-07-26T21:41:19.697Z,101519.09
2022-07-26T21:43:46.150Z,101581.31
2022-07-26T21:46:13.606Z,101557.84
2022-07-26T21:48:40.947Z,101565.91
2022-07-26T21:51:07.440Z,101503.81
2022-07-26T21:53:33.832Z,101561.34
2022-07-26T21:56:00.249Z,101543.84
2022-07-26T21:58:28.149Z,101569.47
2022-07-26T22:01:03.291Z,101590.59
2022-07-26T22:03:34.920Z,101585.47
2022-07-26T22:06:01.380Z,101575.09
2022-07-26T22:08:27.773Z,101576.41
2022-07-26T22:10:54.371Z,101529.09
2022-07-26T22:13:20.843Z,101589.16
2022-07-26T22:15:47.480Z,101597.19
2022-07-26T22:18:14.432Z,101513.72
2022-07-26T22:20:41.210Z,101573.09
2022-07-26T22:23:10.016Z,101540.22
2022-07-26T22:25:37.271Z,101603.38
2022-07-26T22:28:05.672Z,101579.25
2022-07-26T22:30:33.247Z,101502.69
2022-07-26T22:33:01.632Z,101520.53
2022-07-26T22:35:33.475Z,101609.75
2022-07-26T22:38:04.904Z,101604.63
2022-07-26T22:40:32.738Z,101611.66
2022-07-26T22:42:59.297Z,101539.97
2022-07-26T22:45:27.151Z,101584.28
2022-07-26T22:47:56.136Z,101605.69
2022-07-26T22:50:24.723Z,101610.97
2022-07-26T22:52:51.426Z,101608.41
2022-07-26T22:55:17.818Z,101549.31
2022-07-26T22:57:45.260Z,101613.44
2022-07-26T23:00:13.827Z,101609.09
2022-07-26T23:02:40.329Z,101611.94
2022-07-26T23:05:07.408Z,101614.03
2022-07-26T23:07:35.183Z,101554.16
2022-07-26T23:10:01.876Z,101609.47
2022-07-26T23:12:28.845Z,101614.59
2022-07-26T23:14:55.415Z,101589.03
2022-07-26T23:17:21.857Z,101579.66
2022-07-26T23:19:48.249Z,101599.47
2022-07-26T23:22:14.738Z,101603.78
2022-07-26T23:24:41.232Z,101615.59
2022-07-26T23:27:10.099Z,101576.91
2022-07-26T23:29:38.726Z,101501.47
2022-07-26T23:32:05.853Z,101618.16
2022-07-26T23:34:34.805Z,101619.28
2022-07-26T23:37:01.286Z,101609.53
2022-07-26T23:39:27.694Z,101596.75
2022-07-26T23:41:54.063Z,101617.31
2022-07-26T23:44:20.476Z,101572.75
2022-07-26T23:46:46.859Z,101609.06
2022-07-26T23:49:13.712Z,101581.25
2022-07-26T23:51:40.568Z,101606.16
2022-07-26T23:54:07.019Z,101556.19
2022-07-26T23:56:33.571Z,101545.97
2022-07-26T23:58:59.954Z,101590.53
